createdAt,value
2022-08-28T00:00:43.375Z,100573.44
2022-08-28T00:03:12.569Z,100577.94
2022-08-28T00:05:40.425Z,100576.25
2022-08-28T00:08:13.275Z,100581.06
2022-08-28T00:10:41.715Z,100587.31
2022-08-28T00:13:15.513Z,100583.09
2022-08-28T00:15:42.718Z,100582.78
2022-08-28T00:18:09.789Z,100584.16
2022-08-28T00:20:38.252Z,100578.63
2022-08-28T00:23:06.995Z,100585.28
2022-08-28T00:25:35.698Z,100582.00
2022-08-28T00:28:08.904Z,100580.53
2022-08-28T00:30:48.309Z,100585.81
2022-08-28T00:33:20.443Z,100577.81
2022-08-28T00:35:49.438Z,100574.59
2022-08-28T00:38:19.247Z,100586.06
2022-08-28T00:40:50.564Z,100577.81
2022-08-28T00:43:45.699Z,100575.34
2022-08-28T00:46:21.548Z,100570.38
2022-08-28T00:48:49.300Z,100575.56
2022-08-28T00:51:38.060Z,100576.69
2022-08-28T00:54:07.892Z,100576.19
2022-08-28T00:56:37.464Z,100575.16
2022-08-28T00:59:09.718Z,100580.75
2022-08-28T01:01:39.224Z,100577.88
2022-08-28T01:04:06.441Z,100573.78
2022-08-28T01:06:35.486Z,100578.22
2022-08-28T01:09:03.633Z,100586.31
2022-08-28T01:11:31.517Z,100585.06
2022-08-28T01:14:01.877Z,100588.47
2022-08-28T01:16:33.913Z,100593.78
2022-08-28T01:19:04.282Z,100586.25
2022-08-28T01:21:36.615Z,100587.31
2022-08-28T01:24:10.423Z,100578.22
2022-08-28T01:26:38.429Z,100587.31
2022-08-28T01:29:08.422Z,100596.72
2022-08-28T01:31:37.423Z,100589.28
2022-08-28T01:34:05.541Z,100590.13
2022-08-28T01:36:33.538Z,100591.66
2022-08-28T01:39:10.359Z,100590.88
2022-08-28T01:41:42.469Z,100589.84
2022-08-28T01:44:09.599Z,100588.78
2022-08-28T01:46:36.821Z,100588.53
2022-08-28T01:49:04.175Z,100596.16
2022-08-28T01:51:34.998Z,100591.88
2022-08-28T01:54:06.093Z,100595.56
2022-08-28T01:56:33.425Z,100592.34
2022-08-28T01:59:07.096Z,100597.50
2022-08-28T02:01:34.247Z,100598.28
2022-08-28T02:04:01.335Z,100596.38
2022-08-28T02:06:28.210Z,100602.59
2022-08-28T02:08:55.547Z,100602.97
2022-08-28T02:11:24.218Z,100601.97
2022-08-28T02:13:54.318Z,100598.28
2022-08-28T02:16:23.266Z,100598.25
2022-08-28T02:18:50.207Z,100599.69
2022-08-28T02:21:17.242Z,100598.88
2022-08-28T02:23:45.197Z,100600.50
2022-08-28T02:26:14.227Z,100606.03
2022-08-28T02:28:42.267Z,100603.16
2022-08-28T02:31:10.193Z,100609.16
2022-08-28T02:33:45.527Z,100607.47
2022-08-28T02:36:14.949Z,100602.66
2022-08-28T02:38:42.836Z,100605.13
2022-08-28T02:41:10.266Z,100607.50
2022-08-28T02:43:37.225Z,100596.06
2022-08-28T02:46:05.888Z,100601.75
2022-08-28T02:48:36.335Z,100606.34
2022-08-28T02:51:09.383Z,100598.56
2022-08-28T02:53:36.990Z,100596.97
2022-08-28T02:56:05.108Z,100604.31
2022-08-28T02:58:33.171Z,100595.34
2022-08-28T03:01:02.281Z,100598.00
2022-08-28T03:03:33.828Z,100592.50
2022-08-28T03:06:03.468Z,100592.06
2022-08-28T03:08:31.559Z,100596.81
2022-08-28T03:11:00.148Z,100591.41
2022-08-28T03:13:27.958Z,100585.75
2022-08-28T03:15:55.863Z,100590.22
2022-08-28T03:18:25.636Z,100590.22
2022-08-28T03:20:54.154Z,100586.03
2022-08-28T03:23:26.558Z,100595.00
2022-08-28T03:26:10.247Z,100584.66
2022-08-28T03:28:43.059Z,100585.84
2022-08-28T03:31:17.884Z,100584.66
2022-08-28T03:33:45.912Z,100593.28
2022-08-28T03:36:18.061Z,100591.81
2022-08-28T03:38:44.974Z,100594.19
2022-08-28T03:41:18.503Z,100594.72
2022-08-28T03:43:45.629Z,100599.97
2022-08-28T03:46:20.326Z,100595.31
2022-08-28T03:48:47.349Z,100594.94
2022-08-28T03:51:29.419Z,100586.59
2022-08-28T03:53:59.011Z,100600.78
2022-08-28T03:56:28.288Z,100599.59
2022-08-28T03:58:59.470Z,100592.88
2022-08-28T04:01:26.803Z,100596.31
2022-08-28T04:03:54.056Z,100600.06
2022-08-28T04:06:20.973Z,100607.84
2022-08-28T04:08:48.158Z,100607.28
2022-08-28T04:11:15.053Z,100607.38
2022-08-28T04:13:41.983Z,100614.06
2022-08-28T04:16:12.235Z,100619.16
2022-08-28T04:18:42.259Z,100611.81
2022-08-28T04:21:19.354Z,100612.66
2022-08-28T04:23:47.418Z,100616.41
2022-08-28T04:26:20.049Z,100617.53
2022-08-28T04:28:48.577Z,100617.63
2022-08-28T04:31:16.917Z,100620.75
2022-08-28T04:33:43.948Z,100619.56
2022-08-28T04:36:17.105Z,100617.66
2022-08-28T04:38:44.377Z,100623.28
2022-08-28T04:41:15.266Z,100619.34
2022-08-28T04:43:42.697Z,100621.81
2022-08-28T04:46:14.486Z,100630.16
2022-08-28T04:48:42.297Z,100618.16
2022-08-28T04:51:12.329Z,100628.16
2022-08-28T04:53:39.735Z,100629.13
2022-08-28T04:56:09.688Z,100626.53
2022-08-28T04:58:38.627Z,100626.50
2022-08-28T05:01:18.498Z,100631.16
2022-08-28T05:03:57.454Z,100633.66
2022-08-28T05:06:27.194Z,100629.03
2022-08-28T05:08:57.443Z,100637.59
2022-08-28T05:11:34.636Z,100645.31
2022-08-28T05:14:09.595Z,100642.72
2022-08-28T05:16:52.834Z,100651.00
2022-08-28T05:19:21.071Z,100645.91
2022-08-28T05:21:48.242Z,100649.16
2022-08-28T05:24:15.349Z,100655.69
2022-08-28T05:26:42.954Z,100655.94
2022-08-28T05:29:11.126Z,100659.22
2022-08-28T05:31:40.575Z,100661.25
2022-08-28T05:34:08.096Z,100664.44
2022-08-28T05:36:37.711Z,100663.16
2022-08-28T05:39:09.989Z,100670.16
2022-08-28T05:41:40.574Z,100670.06
2022-08-28T05:44:10.506Z,100679.94
2022-08-28T05:46:41.644Z,100676.81
2022-08-28T05:49:10.397Z,100686.47
2022-08-28T05:51:41.313Z,100681.22
2022-08-28T05:54:08.716Z,100681.22
2022-08-28T05:56:38.472Z,100676.53
2022-08-28T05:59:07.662Z,100677.00
2022-08-28T06:01:40.418Z,100678.00
2022-08-28T06:04:15.342Z,100681.38
2022-08-28T06:06:42.839Z,100682.72
2022-08-28T06:09:19.230Z,100681.03
2022-08-28T06:11:47.318Z,100679.41
2022-08-28T06:14:17.943Z,100679.38
2022-08-28T06:16:52.341Z,100689.50
2022-08-28T06:19:20.934Z,100683.66
2022-08-28T06:21:48.246Z,100685.47
2022-08-28T06:24:15.362Z,100687.88
2022-08-28T06:26:42.310Z,100682.13
2022-08-28T06:29:13.707Z,100675.94
2022-08-28T06:31:41.006Z,100682.84
2022-08-28T06:34:09.288Z,100685.34
2022-08-28T06:36:41.834Z,100682.25
2022-08-28T06:39:11.415Z,100693.97
2022-08-28T06:41:42.863Z,100699.72
2022-08-28T06:44:18.416Z,100693.75
2022-08-28T06:46:46.938Z,100696.38
2022-08-28T06:49:14.341Z,100701.63
2022-08-28T06:51:41.730Z,100708.91
2022-08-28T06:54:09.255Z,100714.06
2022-08-28T06:56:36.466Z,100701.59
2022-08-28T06:59:03.390Z,100710.84
2022-08-28T07:01:34.836Z,100713.56
2022-08-28T07:04:07.603Z,100703.59
2022-08-28T07:06:40.321Z,100707.38
2022-08-28T07:09:11.263Z,100707.53
2022-08-28T07:11:39.784Z,100718.72
2022-08-28T07:14:07.566Z,100718.50
2022-08-28T07:19:10.590Z,100725.91
2022-08-28T07:21:41.953Z,100724.16
2022-08-28T07:24:11.764Z,100726.03
2022-08-28T07:26:41.068Z,100729.28
2022-08-28T07:29:10.574Z,100734.09
2022-08-28T07:31:41.436Z,100724.13
2022-08-28T07:34:10.387Z,100729.50
2022-08-28T07:36:38.117Z,100735.00
2022-08-28T07:39:06.965Z,100742.03
2022-08-28T07:41:37.329Z,100733.22
2022-08-28T07:44:22.951Z,100733.72
2022-08-28T07:46:59.195Z,100741.25
2022-08-28T07:49:27.230Z,100742.75
2022-08-28T07:51:54.559Z,100750.41
2022-08-28T07:54:23.126Z,100755.84
2022-08-28T07:56:51.297Z,100744.56
2022-08-28T07:59:19.129Z,100753.72
2022-08-28T08:01:49.119Z,100749.38
2022-08-28T08:04:19.162Z,100747.66
2022-08-28T08:06:46.834Z,100758.56
2022-08-28T08:09:16.913Z,100756.19
2022-08-28T08:11:44.184Z,100753.25
2022-08-28T08:14:12.469Z,100758.47
2022-08-28T08:16:43.371Z,100754.72
2022-08-28T08:19:14.896Z,100759.25
2022-08-28T08:21:48.381Z,100762.22
2022-08-28T08:24:21.099Z,100765.53
2022-08-28T08:26:59.957Z,100762.81
2022-08-28T08:29:32.740Z,100759.34
2022-08-28T08:32:08.540Z,100754.91
2022-08-28T08:34:40.215Z,100757.94
2022-08-28T08:37:07.865Z,100751.59
2022-08-28T08:39:36.576Z,100758.06
2022-08-28T08:42:08.085Z,100759.59
2022-08-28T08:44:43.198Z,100760.56
2022-08-28T08:47:40.364Z,100761.44
2022-08-28T08:50:33.581Z,100779.47
2022-08-28T08:53:37.971Z,100771.00
2022-08-28T08:56:06.164Z,100775.78
2022-08-28T08:58:44.247Z,100785.66
2022-08-28T09:01:55.616Z,100772.69
2022-08-28T09:04:53.123Z,100779.94
2022-08-28T09:07:37.976Z,100772.63
2022-08-28T09:10:11.001Z,100775.81
2022-08-28T09:13:06.603Z,100788.56
2022-08-28T09:15:40.845Z,100794.22
2022-08-28T09:18:19.740Z,100784.53
2022-08-28T09:20:51.827Z,100778.84
2022-08-28T09:23:19.489Z,100784.00
2022-08-28T09:26:01.842Z,100759.09
2022-08-28T09:28:37.375Z,100761.44
2022-08-28T09:31:38.925Z,100763.38
2022-08-28T09:34:30.272Z,100760.72
2022-08-28T09:36:59.781Z,100777.19
2022-08-28T09:39:31.528Z,100780.03
2022-08-28T09:42:41.656Z,100776.72
2022-08-28T09:45:21.299Z,100771.34
2022-08-28T09:47:59.267Z,100767.94
2022-08-28T09:50:55.277Z,100752.16
2022-08-28T09:53:22.829Z,100749.69
2022-08-28T09:56:10.884Z,100752.75
2022-08-28T09:58:52.164Z,100743.91
2022-08-28T10:01:53.375Z,100747.16
2022-08-28T10:04:38.089Z,100741.38
2022-08-28T10:07:41.956Z,100751.41
2022-08-28T10:10:23.701Z,100747.28
2022-08-28T10:13:04.264Z,100759.28
2022-08-28T10:15:52.957Z,100760.91
2022-08-28T10:19:00.501Z,100756.53
2022-08-28T10:21:53.558Z,100758.41
2022-08-28T10:24:49.013Z,100753.28
2022-08-28T10:27:42.945Z,100747.13
2022-08-28T10:30:21.756Z,100744.47
2022-08-28T10:33:10.038Z,100758.75
2022-08-28T10:35:50.908Z,100738.06
2022-08-28T10:38:30.387Z,100738.00
2022-08-28T10:41:04.474Z,100739.19
2022-08-28T10:43:43.488Z,100738.78
2022-08-28T10:46:21.319Z,100739.69
2022-08-28T10:49:20.839Z,100740.50
2022-08-28T10:51:54.569Z,100735.78
2022-08-28T10:54:32.123Z,100730.69
2022-08-28T10:57:10.465Z,100733.47
2022-08-28T10:59:41.870Z,100734.22
2022-08-28T11:02:13.365Z,100727.59
2022-08-28T11:04:41.173Z,100724.91
2022-08-28T11:07:20.454Z,100729.78
2022-08-28T11:09:49.166Z,100725.59
2022-08-28T11:12:19.830Z,100723.59
2022-08-28T11:14:50.766Z,100723.41
2022-08-28T11:17:27.578Z,100722.69
2022-08-28T11:20:16.116Z,100718.72
2022-08-28T11:23:17.285Z,100718.00
2022-08-28T11:25:58.687Z,100714.78
2022-08-28T11:28:25.821Z,100712.72
2022-08-28T11:30:58.443Z,100717.66
2022-08-28T11:33:47.687Z,100717.91
2022-08-28T11:36:20.516Z,100717.25
2022-08-28T11:38:57.010Z,100717.53
2022-08-28T11:41:38.486Z,100716.00
2022-08-28T11:44:12.591Z,100718.97
2022-08-28T11:46:50.624Z,100710.63
2022-08-28T11:49:26.429Z,100717.13
2022-08-28T11:52:49.829Z,100723.69
2022-08-28T11:55:46.784Z,100720.69
2022-08-28T11:58:36.403Z,100729.56
2022-08-28T12:01:11.258Z,100723.03
2022-08-28T12:04:08.085Z,100715.06
2022-08-28T12:07:08.777Z,100729.13
2022-08-28T12:09:38.724Z,100719.94
2022-08-28T12:12:20.552Z,100726.38
2022-08-28T12:14:47.289Z,100728.19
2022-08-28T12:17:31.247Z,100721.22
2022-08-28T12:20:30.220Z,100721.94
2022-08-28T12:23:01.373Z,100715.91
2022-08-28T12:25:40.737Z,100712.16
2022-08-28T12:28:19.096Z,100715.84
2022-08-28T12:31:11.689Z,100709.72
2022-08-28T12:33:58.527Z,100714.72
2022-08-28T12:36:26.801Z,100705.09
2022-08-28T12:38:57.465Z,100705.16
2022-08-28T12:41:24.996Z,100713.75
2022-08-28T12:43:57.400Z,100696.53
2022-08-28T12:46:32.856Z,100712.25
2022-08-28T12:49:06.396Z,100705.34
2022-08-28T12:51:38.362Z,100696.84
2022-08-28T12:54:08.364Z,100707.13
2022-08-28T12:56:38.380Z,100707.72
2022-08-28T12:59:36.149Z,100697.72
2022-08-28T13:02:24.375Z,100695.81
2022-08-28T13:05:16.574Z,100686.56
2022-08-28T13:07:50.310Z,100691.53
2022-08-28T13:10:38.239Z,100679.25
2022-08-28T13:13:21.812Z,100688.94
2022-08-28T13:15:53.391Z,100690.28
2022-08-28T13:19:12.741Z,100694.50
2022-08-28T13:21:51.801Z,100683.13
2022-08-28T13:24:24.110Z,100678.66
2022-08-28T13:27:21.858Z,100678.69
2022-08-28T13:30:08.933Z,100671.00
2022-08-28T13:32:39.652Z,100674.72
2022-08-28T13:35:18.358Z,100673.47
2022-08-28T13:37:50.278Z,100679.13
2022-08-28T13:40:55.816Z,100669.53
2022-08-28T13:43:11.418Z,100672.66
2022-08-28T13:45:44.673Z,100668.53
2022-08-28T13:48:25.053Z,100670.75
2022-08-28T13:51:10.683Z,100665.00
2022-08-28T13:53:39.113Z,100667.69
2022-08-28T13:56:06.677Z,100675.31
2022-08-28T13:58:33.631Z,100664.72
2022-08-28T14:01:01.364Z,100670.75
2022-08-28T14:03:37.658Z,100675.16
2022-08-28T14:06:11.112Z,100673.94
2022-08-28T14:08:40.313Z,100676.28
2022-08-28T14:11:07.893Z,100670.59
2022-08-28T14:13:35.872Z,100676.34
2022-08-28T14:16:08.063Z,100664.94
2022-08-28T14:18:35.380Z,100659.88
2022-08-28T14:21:06.236Z,100662.03
2022-08-28T14:23:35.919Z,100659.44
2022-08-28T14:26:05.677Z,100657.06
2022-08-28T14:28:32.883Z,100659.28
2022-08-28T14:30:59.946Z,100662.63
2022-08-28T14:33:26.862Z,100660.06
2022-08-28T14:35:55.456Z,100661.78
2022-08-28T14:38:22.353Z,100661.34
2022-08-28T14:40:52.397Z,100662.41
2022-08-28T14:43:22.439Z,100650.56
2022-08-28T14:45:51.699Z,100651.63
2022-08-28T14:48:19.306Z,100653.88
2022-08-28T14:50:48.281Z,100647.50
2022-08-28T14:53:16.236Z,100644.38
2022-08-28T14:55:46.997Z,100637.81
2022-08-28T14:58:15.419Z,100641.41
2022-08-28T15:00:46.577Z,100633.78
2022-08-28T15:03:13.947Z,100641.41
2022-08-28T15:05:44.357Z,100633.44
2022-08-28T15:08:16.701Z,100637.44
2022-08-28T15:10:44.983Z,100633.94
2022-08-28T15:13:12.752Z,100632.63
2022-08-28T15:15:42.173Z,100627.03
2022-08-28T15:18:10.872Z,100638.75
2022-08-28T15:20:46.287Z,100633.06
2022-08-28T15:23:15.222Z,100632.88
2022-08-28T15:25:45.189Z,100624.66
2022-08-28T15:28:12.394Z,100632.16
2022-08-28T15:30:41.034Z,100633.53
2022-08-28T15:33:07.911Z,100622.41
2022-08-28T15:35:37.055Z,100627.66
2022-08-28T15:38:05.756Z,100627.13
2022-08-28T15:40:52.579Z,100629.13
2022-08-28T15:43:20.481Z,100619.31
2022-08-28T15:45:56.737Z,100631.16
2022-08-28T15:48:23.632Z,100628.47
2022-08-28T15:50:51.308Z,100627.44
2022-08-28T15:53:22.700Z,100619.63
2022-08-28T15:55:50.415Z,100625.88
2022-08-28T15:58:17.470Z,100627.56
2022-08-28T16:00:44.512Z,100631.06
2022-08-28T16:03:11.577Z,100629.09
2022-08-28T16:05:39.577Z,100625.38
2022-08-28T16:08:09.023Z,100622.50
2022-08-28T16:10:36.240Z,100639.16
2022-08-28T16:13:04.654Z,100637.63
2022-08-28T16:15:31.991Z,100629.75
2022-08-28T16:17:58.840Z,100621.88
2022-08-28T16:20:25.742Z,100628.34
2022-08-28T16:22:52.962Z,100630.47
2022-08-28T16:25:19.876Z,100631.69
2022-08-28T16:27:46.719Z,100626.31
2022-08-28T16:30:15.660Z,100631.59
2022-08-28T16:32:46.703Z,100631.38
2022-08-28T16:35:15.914Z,100626.84
2022-08-28T16:37:43.614Z,100628.53
2022-08-28T16:40:12.031Z,100623.59
2022-08-28T16:42:41.957Z,100626.31
2022-08-28T16:45:18.184Z,100637.44
2022-08-28T16:47:45.063Z,100626.94
2022-08-28T16:50:13.535Z,100619.16
2022-08-28T16:52:40.552Z,100634.75
2022-08-28T16:55:09.988Z,100626.59
2022-08-28T16:57:37.408Z,100620.81
2022-08-28T17:00:14.183Z,100619.16
2022-08-28T17:02:42.646Z,100628.41
2022-08-28T17:05:11.387Z,100623.94
2022-08-28T17:07:39.763Z,100623.75
2022-08-28T17:10:08.522Z,100620.03
2022-08-28T17:12:35.421Z,100624.44
2022-08-28T17:15:02.698Z,100625.03
2022-08-28T17:17:29.629Z,100621.72
2022-08-28T17:19:57.730Z,100623.19
2022-08-28T17:22:33.835Z,100625.88
2022-08-28T17:25:13.582Z,100621.72
2022-08-28T17:27:41.306Z,100622.38
2022-08-28T17:30:10.480Z,100628.16
2022-08-28T17:32:37.461Z,100621.22
2022-08-28T17:35:05.405Z,100629.41
2022-08-28T17:37:32.594Z,100636.84
2022-08-28T17:39:59.607Z,100632.81
2022-08-28T17:42:26.515Z,100637.09
2022-08-28T17:44:53.392Z,100632.19
2022-08-28T17:47:26.392Z,100640.03
2022-08-28T17:50:00.239Z,100641.25
2022-08-28T17:52:28.541Z,100642.72
2022-08-28T17:54:55.648Z,100642.91
2022-08-28T17:57:24.132Z,100641.25
2022-08-28T17:59:51.409Z,100644.34
2022-08-28T18:02:19.131Z,100648.88
2022-08-28T18:04:46.047Z,100650.38
2022-08-28T18:07:12.943Z,100655.72
2022-08-28T18:09:40.009Z,100651.81
2022-08-28T18:12:12.464Z,100648.69
2022-08-28T18:14:40.900Z,100644.19
2022-08-28T18:17:10.653Z,100650.16
2022-08-28T18:19:40.104Z,100641.38
2022-08-28T18:22:12.913Z,100656.97
2022-08-28T18:24:40.846Z,100660.09
2022-08-28T18:27:08.709Z,100665.66
2022-08-28T18:29:37.218Z,100661.72
2022-08-28T18:32:05.616Z,100664.63
2022-08-28T18:34:32.582Z,100667.50
2022-08-28T18:37:00.786Z,100674.91
2022-08-28T18:39:29.906Z,100671.00
2022-08-28T18:41:58.086Z,100679.63
2022-08-28T18:44:25.176Z,100681.47
2022-08-28T18:46:52.444Z,100686.78
2022-08-28T18:49:19.689Z,100686.16
2022-08-28T18:51:46.796Z,100692.72
2022-08-28T18:54:18.917Z,100685.75
2022-08-28T18:56:47.581Z,100681.88
2022-08-28T18:59:16.702Z,100682.03
2022-08-28T19:01:43.799Z,100686.59
2022-08-28T19:04:10.782Z,100696.84
2022-08-28T19:06:37.712Z,100704.44
2022-08-28T19:09:05.550Z,100705.88
2022-08-28T19:11:32.755Z,100711.81
2022-08-28T19:14:03.886Z,100710.38
2022-08-28T19:16:32.216Z,100713.88
2022-08-28T19:18:59.190Z,100717.34
2022-08-28T19:21:29.021Z,100714.06
2022-08-28T19:23:56.496Z,100720.41
2022-08-28T19:26:26.045Z,100727.16
2022-08-28T19:28:53.712Z,100726.16
2022-08-28T19:31:20.813Z,100735.19
2022-08-28T19:33:48.068Z,100734.31
2022-08-28T19:36:15.536Z,100730.44
2022-08-28T19:38:43.041Z,100736.59
2022-08-28T19:41:12.061Z,100732.44
2022-08-28T19:43:42.887Z,100743.94
2022-08-28T19:46:18.718Z,100746.16
2022-08-28T19:48:49.346Z,100748.22
2022-08-28T19:51:17.620Z,100753.31
2022-08-28T19:53:59.049Z,100746.94
2022-08-28T19:56:32.296Z,100763.88
2022-08-28T19:59:01.829Z,100762.94
2022-08-28T20:01:31.822Z,100764.97
2022-08-28T20:04:00.127Z,100757.16
2022-08-28T20:06:28.661Z,100761.03
2022-08-28T20:08:55.655Z,100762.69
2022-08-28T20:11:29.053Z,100756.34
2022-08-28T20:14:04.879Z,100758.19
2022-08-28T20:16:37.146Z,100762.63
2022-08-28T20:19:07.750Z,100756.03
2022-08-28T20:21:38.213Z,100759.91
2022-08-28T20:24:09.625Z,100765.50
2022-08-28T20:26:36.959Z,100772.47
2022-08-28T20:29:06.698Z,100763.00
2022-08-28T20:31:34.770Z,100769.19
2022-08-28T20:34:01.683Z,100764.28
2022-08-28T20:36:28.575Z,100772.38
2022-08-28T20:38:55.508Z,100771.53
2022-08-28T20:41:22.797Z,100769.13
2022-08-28T20:43:50.082Z,100774.78
2022-08-28T20:46:17.318Z,100775.97
2022-08-28T20:48:44.423Z,100774.75
2022-08-28T20:51:11.883Z,100786.84
2022-08-28T20:53:39.093Z,100776.50
2022-08-28T20:56:09.391Z,100786.47
2022-08-28T20:58:37.283Z,100789.16
2022-08-28T21:01:05.601Z,100798.53
2022-08-28T21:03:32.745Z,100801.19
2022-08-28T21:05:59.686Z,100804.63
2022-08-28T21:08:26.570Z,100803.88
2022-08-28T21:10:53.511Z,100804.44
2022-08-28T21:13:20.597Z,100801.16
2022-08-28T21:15:47.682Z,100809.97
2022-08-28T21:18:14.926Z,100806.13
2022-08-28T21:20:42.224Z,100811.34
2022-08-28T21:23:10.458Z,100811.16
2022-08-28T21:25:40.065Z,100814.66
2022-08-28T21:28:06.972Z,100800.38
2022-08-28T21:30:34.279Z,100817.41
2022-08-28T21:33:01.195Z,100813.22
2022-08-28T21:35:28.307Z,100821.69
2022-08-28T21:37:55.283Z,100822.97
2022-08-28T21:40:22.293Z,100815.75
2022-08-28T21:42:49.326Z,100827.28
2022-08-28T21:45:16.202Z,100821.63
2022-08-28T21:47:43.347Z,100822.34
2022-08-28T21:50:11.488Z,100833.81
2022-08-28T21:52:38.454Z,100830.78
2022-08-28T21:55:11.307Z,100834.81
2022-08-28T21:57:38.493Z,100831.81
2022-08-28T22:00:18.819Z,100830.69
2022-08-28T22:02:46.499Z,100828.22
2022-08-28T22:05:13.918Z,100828.97
2022-08-28T22:07:40.968Z,100832.06
2022-08-28T22:10:09.632Z,100839.50
2022-08-28T22:12:36.584Z,100840.94
2022-08-28T22:15:06.039Z,100842.66
2022-08-28T22:17:33.025Z,100836.97
2022-08-28T22:20:00.002Z,100840.84
2022-08-28T22:22:45.269Z,100846.16
2022-08-28T22:25:12.298Z,100849.34
2022-08-28T22:27:39.180Z,100844.41
2022-08-28T22:30:06.740Z,100851.72
2022-08-28T22:32:33.634Z,100861.38
2022-08-28T22:35:00.842Z,100852.75
2022-08-28T22:37:27.825Z,100854.09
2022-08-28T22:39:54.825Z,100856.81
2022-08-28T22:42:22.077Z,100849.19
2022-08-28T22:44:48.951Z,100852.50
2022-08-28T22:47:15.870Z,100845.00
2022-08-28T22:49:45.978Z,100844.69
2022-08-28T22:52:13.006Z,100852.22
2022-08-28T22:54:39.929Z,100853.47
2022-08-28T22:57:06.896Z,100852.16
2022-08-28T22:59:35.078Z,100865.44
2022-08-28T23:02:03.657Z,100855.69
2022-08-28T23:04:31.039Z,100859.22
2022-08-28T23:06:57.976Z,100862.06
2022-08-28T23:09:24.879Z,100859.22
2022-08-28T23:11:51.865Z,100860.19
2022-08-28T23:14:19.254Z,100858.50
2022-08-28T23:16:46.382Z,100862.91
2022-08-28T23:19:13.750Z,100862.03
2022-08-28T23:21:43.899Z,100860.78
2022-08-28T23:24:15.967Z,100852.22
2022-08-28T23:26:44.317Z,100853.88
2022-08-28T23:29:12.335Z,100856.53
2022-08-28T23:31:39.898Z,100855.38
2022-08-28T23:34:07.528Z,100858.25
2022-08-28T23:36:36.032Z,100863.94
2022-08-28T23:39:04.836Z,100853.13
2022-08-28T23:41:33.218Z,100858.13
2022-08-28T23:44:02.404Z,100855.34
2022-08-28T23:46:31.140Z,100864.28
2022-08-28T23:48:58.080Z,100855.00
2022-08-28T23:51:24.947Z,100858.00
2022-08-28T23:53:52.487Z,100853.88
2022-08-28T23:56:19.364Z,100858.91
2022-08-28T23:58:46.279Z,100853.00
